Time;durP1;ratioP1;P1;durP2;ratioP2;P2;SDS_P1;SDS_P2;PMS_P1;PMS_P2;Temp;Humidity;BMP_temperature;BMP_pressure;BME280_temperature;BME280_humidity;BME280_pressure;Samples;Min_cycle;Max_cycle;Signal;HPM_P1;HPM_P2
2021/06/05 00:00:18;;;;;;;8.77;7.60;;;16.30;99.90;;;;;;5031265;28;20030;-73
2021/06/05 00:02:44;;;;;;;9.80;8.80;;;16.20;99.90;;;;;;5030859;28;20483;-73
2021/06/05 00:05:11;;;;;;;12.70;9.85;;;16.20;99.90;;;;;;5032073;28;20029;-74
2021/06/05 00:07:36;;;;;;;10.40;8.20;;;16.20;99.90;;;;;;5032419;28;20093;-73
2021/06/05 00:10:06;;;;;;;12.35;9.75;;;16.20;99.90;;;;;;5031127;28;20124;-73
2021/06/05 00:12:32;;;;;;;11.10;9.55;;;16.10;99.90;;;;;;5032228;28;20305;-73
2021/06/05 00:14:57;;;;;;;11.30;9.68;;;16.10;99.90;;;;;;5032196;28;20028;-73
2021/06/05 00:17:24;;;;;;;10.98;9.00;;;16.10;99.90;;;;;;5032180;28;20084;-73
2021/06/05 00:19:50;;;;;;;11.65;8.90;;;16.10;99.90;;;;;;5032177;28;20100;-73
2021/06/05 00:22:15;;;;;;;11.20;10.00;;;16.00;99.90;;;;;;5031164;28;20430;-73
2021/06/05 00:24:42;;;;;;;11.73;9.82;;;16.00;99.90;;;;;;5030707;28;20025;-74
2021/06/05 00:27:09;;;;;;;11.75;10.52;;;16.10;99.90;;;;;;5030768;28;20032;-73
2021/06/05 00:29:34;;;;;;;17.45;10.57;;;16.10;99.90;;;;;;5030744;28;20030;-73
2021/06/05 00:32:00;;;;;;;12.25;9.52;;;16.10;99.90;;;;;;5031962;28;20425;-73
2021/06/05 00:34:26;;;;;;;9.77;8.88;;;16.20;99.90;;;;;;5031335;28;20064;-73
2021/06/05 00:36:51;;;;;;;13.25;9.82;;;16.30;99.90;;;;;;5031863;28;20517;-72
2021/06/05 00:39:17;;;;;;;9.82;8.63;;;16.30;99.90;;;;;;5031844;28;20083;-73
2021/06/05 00:41:43;;;;;;;9.93;8.93;;;16.30;99.90;;;;;;5031842;28;20041;-73
2021/06/05 00:44:12;;;;;;;11.25;9.48;;;16.40;99.90;;;;;;5030331;28;20108;-73
2021/06/05 00:46:37;;;;;;;10.68;9.15;;;16.40;99.90;;;;;;5031320;28;20021;-74
2021/06/05 00:49:05;;;;;;;9.45;8.25;;;16.40;99.90;;;;;;5030352;28;20028;-74
2021/06/05 00:51:50;;;;;;;9.25;7.68;;;16.40;99.90;;;;;;5031596;28;20104;-74
2021/06/05 00:54:17;;;;;;;9.32;7.32;;;16.50;99.90;;;;;;5031686;28;20037;-73
2021/06/05 00:56:54;;;;;;;10.98;8.20;;;16.50;99.90;;;;;;5030166;28;20034;-74
2021/06/05 00:59:21;;;;;;;11.00;8.65;;;16.50;99.90;;;;;;5031853;28;20112;-73
2021/06/05 01:01:47;;;;;;;10.50;8.48;;;16.60;99.90;;;;;;5030122;28;20030;-73
2021/06/05 01:04:13;;;;;;;8.50;7.65;;;16.60;99.90;;;;;;5029933;28;20033;-73
2021/06/05 01:06:48;;;;;;;9.15;7.43;;;16.60;99.90;;;;;;5031189;28;20052;-74
2021/06/05 01:09:45;;;;;;;9.10;7.85;;;16.70;99.90;;;;;;5031569;28;20356;-73
2021/06/05 01:12:20;;;;;;;10.70;8.80;;;16.70;99.90;;;;;;5031798;28;20097;-73
2021/06/05 01:14:55;;;;;;;9.95;7.60;;;16.70;99.90;;;;;;5029781;28;20061;-73
2021/06/05 01:17:38;;;;;;;10.60;8.70;;;16.70;99.90;;;;;;5031434;28;20025;-73
2021/06/05 01:20:46;;;;;;;10.50;8.50;;;16.70;99.90;;;;;;5031336;28;20033;-73
2021/06/05 01:23:29;;;;;;;11.35;8.55;;;16.70;99.90;;;;;;5030990;28;20038;-73
2021/06/05 01:26:09;;;;;;;;;;;16.70;99.90;;;;;;5030005;28;20021;-73
2021/06/05 01:28:54;;;;;;;10.05;8.32;;;16.70;99.90;;;;;;5029674;28;19912;-74
2021/06/05 01:31:26;;;;;;;11.55;9.15;;;16.70;99.90;;;;;;5030894;28;20021;-74
2021/06/05 01:33:54;;;;;;;9.60;8.63;;;16.70;99.90;;;;;;5030856;28;20033;-73
2021/06/05 01:36:20;;;;;;;11.55;8.95;;;16.60;99.90;;;;;;5030653;28;20272;-74
2021/06/05 01:38:51;;;;;;;11.23;9.90;;;16.60;99.90;;;;;;5029415;28;20045;-73
2021/06/05 01:41:19;;;;;;;11.60;8.82;;;16.60;99.90;;;;;;5030830;28;20116;-73
2021/06/05 01:43:47;;;;;;;9.85;8.85;;;16.60;99.90;;;;;;5029520;28;20402;-73
2021/06/05 01:46:15;;;;;;;11.30;9.27;;;16.60;99.90;;;;;;5031195;28;20029;-74
2021/06/05 01:48:41;;;;;;;11.07;9.45;;;16.60;99.90;;;;;;5030736;28;20045;-73
2021/06/05 01:51:09;;;;;;;12.70;9.82;;;16.60;99.90;;;;;;5030758;28;20100;-74
2021/06/05 01:53:41;;;;;;;12.00;10.40;;;16.50;99.90;;;;;;5030332;28;20022;-73
2021/06/05 01:56:13;;;;;;;12.40;11.00;;;16.60;99.90;;;;;;5030381;28;20022;-74
2021/06/05 01:58:41;;;;;;;8.63;7.55;;;16.60;99.90;;;;;;5030441;28;20040;-73
2021/06/05 02:01:08;;;;;;;13.93;10.63;;;16.50;99.90;;;;;;5030346;28;20105;-73
2021/06/05 02:03:33;;;;;;;11.60;9.45;;;16.50;99.90;;;;;;5030342;28;20029;-73
2021/06/05 02:05:59;;;;;;;10.75;9.20;;;16.50;99.90;;;;;;5030163;28;20032;-73
2021/06/05 02:08:28;;;;;;;11.95;10.68;;;16.50;99.90;;;;;;5030488;28;20064;-73
2021/06/05 02:11:00;;;;;;;14.63;11.00;;;16.50;99.90;;;;;;5030179;28;20030;-73
2021/06/05 02:13:48;;;;;;;12.45;10.80;;;16.50;99.90;;;;;;5030346;28;20026;-73
2021/06/05 02:16:21;;;;;;;12.10;10.75;;;16.50;99.90;;;;;;5029748;28;20434;-73
2021/06/05 02:18:50;;;;;;;11.05;9.95;;;16.40;99.90;;;;;;5030091;28;20036;-73
2021/06/05 02:21:19;;;;;;;11.45;9.98;;;16.40;99.90;;;;;;5030036;28;20548;-73
2021/06/05 02:23:57;;;;;;;12.75;11.45;;;16.40;99.90;;;;;;5029799;28;20013;-73
2021/06/05 02:26:23;;;;;;;11.75;10.55;;;16.40;99.90;;;;;;5030002;28;20025;-73
2021/06/05 02:28:53;;;;;;;12.13;9.98;;;16.50;99.90;;;;;;5029895;28;20489;-73
2021/06/05 02:31:19;;;;;;;10.35;8.80;;;16.40;99.90;;;;;;5029800;28;20021;-73
2021/06/05 02:33:46;;;;;;;16.15;12.15;;;16.50;99.90;;;;;;5029688;28;20071;-73
2021/06/05 02:36:13;;;;;;;14.63;13.00;;;16.50;99.90;;;;;;5028222;28;20036;-73
2021/06/05 02:38:46;;;;;;;15.07;11.98;;;16.50;99.90;;;;;;5029672;28;20040;-73
2021/06/05 02:41:14;;;;;;;13.38;11.52;;;16.50;99.90;;;;;;5028489;28;20025;-73
2021/06/05 02:43:43;;;;;;;11.55;10.35;;;16.50;99.90;;;;;;5028582;28;20501;-73
2021/06/05 02:46:15;;;;;;;12.13;10.93;;;16.60;99.90;;;;;;5029561;28;20021;-74
2021/06/05 02:48:50;;;;;;;11.80;10.07;;;16.60;99.90;;;;;;5029630;28;20028;-74
2021/06/05 02:51:19;;;;;;;11.80;10.05;;;16.60;99.90;;;;;;5029537;28;20036;-74
2021/06/05 02:53:45;;;;;;;11.30;9.90;;;16.60;99.90;;;;;;5028458;28;20026;-73
2021/06/05 02:56:11;;;;;;;12.57;10.75;;;16.50;99.90;;;;;;5028048;28;20021;-73
2021/06/05 02:58:38;;;;;;;11.00;9.85;;;16.60;99.90;;;;;;5029417;28;20033;-73
2021/06/05 03:01:06;;;;;;;11.07;9.88;;;16.50;99.90;;;;;;5029385;28;20025;-73
2021/06/05 03:03:32;;;;;;;13.90;10.00;;;16.50;99.90;;;;;;5029294;28;20018;-73
2021/06/05 03:05:58;;;;;;;10.63;9.63;;;16.50;99.90;;;;;;5029154;28;20029;-73
2021/06/05 03:08:27;;;;;;;11.32;9.35;;;16.50;99.90;;;;;;5028285;28;20017;-73
2021/06/05 03:10:54;;;;;;;12.75;10.13;;;16.50;99.90;;;;;;5029247;28;20487;-73
2021/06/05 03:13:21;;;;;;;9.93;8.93;;;16.50;99.90;;;;;;5029245;28;20021;-73
2021/06/05 03:15:48;;;;;;;10.77;7.88;;;16.50;99.90;;;;;;5029116;28;20112;-74
2021/06/05 03:18:15;;;;;;;9.98;7.80;;;16.50;99.90;;;;;;5027829;28;20406;-74
2021/06/05 03:20:43;;;;;;;8.75;7.72;;;16.60;99.90;;;;;;5027910;28;20060;-73
2021/06/05 03:23:10;;;;;;;9.90;7.72;;;16.60;99.90;;;;;;5029301;28;20029;-73
2021/06/05 03:25:36;;;;;;;8.02;6.97;;;16.70;99.90;;;;;;5027653;28;20037;-73
2021/06/05 03:28:04;;;;;;;9.90;7.53;;;16.80;99.90;;;;;;5027854;28;20017;-73
2021/06/05 03:30:30;;;;;;;10.75;6.78;;;16.80;99.90;;;;;;5027548;28;20017;-73
2021/06/05 03:32:56;;;;;;;10.32;6.88;;;16.80;99.90;;;;;;5027434;28;20022;-73
2021/06/05 03:35:22;;;;;;;8.00;6.88;;;16.80;99.90;;;;;;5028987;28;20042;-74
2021/06/05 03:37:48;;;;;;;7.57;6.45;;;16.80;99.90;;;;;;5027777;28;20061;-73
2021/06/05 03:40:19;;;;;;;7.03;6.32;;;16.80;99.90;;;;;;5029063;28;20072;-73
2021/06/05 03:42:44;;;;;;;7.95;6.70;;;16.90;99.90;;;;;;5029417;28;20022;-73
2021/06/05 03:45:10;;;;;;;8.85;6.43;;;16.90;99.90;;;;;;5027587;28;20033;-73
2021/06/05 03:47:38;;;;;;;8.05;5.78;;;16.90;99.90;;;;;;5028885;28;20056;-73
2021/06/05 03:50:06;;;;;;;7.38;6.18;;;16.90;99.90;;;;;;5028912;28;20532;-73
2021/06/05 03:52:31;;;;;;;7.70;6.15;;;17.00;99.90;;;;;;5028682;28;20479;-73
2021/06/05 03:54:57;;;;;;;6.53;5.80;;;17.00;99.90;;;;;;5027402;28;20109;-73
2021/06/05 03:57:25;;;;;;;10.57;6.10;;;17.10;99.90;;;;;;5028776;28;20037;-73
2021/06/05 03:59:54;;;;;;;6.95;6.13;;;17.20;99.90;;;;;;5027530;28;20053;-73
2021/06/05 04:02:20;;;;;;;8.55;6.55;;;17.20;99.90;;;;;;5028764;28;20033;-73
2021/06/05 04:04:46;;;;;;;7.43;6.20;;;17.30;99.90;;;;;;5028684;28;20129;-73
2021/06/05 04:07:12;;;;;;;7.03;6.20;;;17.30;99.90;;;;;;5027532;28;20056;-73
2021/06/05 04:09:41;;;;;;;7.25;6.55;;;17.40;99.90;;;;;;5030836;28;20018;-73
2021/06/05 04:12:08;;;;;;;9.95;6.60;;;17.40;99.90;;;;;;5031170;28;20026;-74
2021/06/05 04:14:34;;;;;;;8.40;5.97;;;17.50;99.90;;;;;;5032232;28;20116;-73
2021/06/05 04:17:00;;;;;;;7.07;6.03;;;17.50;99.90;;;;;;5031076;28;20120;-73
2021/06/05 04:19:26;;;;;;;7.50;6.70;;;17.60;99.90;;;;;;5032518;28;20495;-73
2021/06/05 04:21:53;;;;;;;6.88;6.18;;;17.60;99.90;;;;;;5032256;28;20030;-73
2021/06/05 04:24:19;;;;;;;8.77;6.43;;;17.70;99.90;;;;;;5032057;28;20152;-73
2021/06/05 04:26:45;;;;;;;8.15;5.85;;;17.70;99.90;;;;;;5032425;28;20026;-74
2021/06/05 04:29:12;;;;;;;7.28;6.22;;;17.70;99.90;;;;;;5030858;28;20029;-73
2021/06/05 04:31:37;;;;;;;7.13;6.38;;;17.80;99.90;;;;;;5032032;28;20483;-73
2021/06/05 04:34:03;;;;;;;6.53;5.80;;;17.90;99.90;;;;;;5032158;28;20044;-73
2021/06/05 04:36:29;;;;;;;7.28;6.57;;;17.90;99.90;;;;;;5031766;28;20030;-73
2021/06/05 04:38:54;;;;;;;8.18;5.85;;;18.00;99.90;;;;;;5031942;28;20044;-74
2021/06/05 04:41:20;;;;;;;9.00;7.30;;;18.20;99.90;;;;;;5031625;28;20305;-74
2021/06/05 04:43:46;;;;;;;8.00;6.85;;;18.20;99.90;;;;;;5030473;28;20029;-73
2021/06/05 04:46:13;;;;;;;6.90;6.25;;;18.40;99.90;;;;;;5031660;28;20022;-73
2021/06/05 04:48:41;;;;;;;8.32;6.88;;;18.50;99.90;;;;;;5031747;28;20021;-73
2021/06/05 04:51:07;;;;;;;7.25;6.40;;;18.60;99.90;;;;;;5031720;28;20022;-73
2021/06/05 04:53:33;;;;;;;9.88;6.30;;;18.70;99.90;;;;;;5030639;28;20022;-73
2021/06/05 04:56:00;;;;;;;8.95;8.10;;;18.80;99.90;;;;;;5031514;28;20395;-73
2021/06/05 04:58:26;;;;;;;8.88;7.10;;;18.90;99.90;;;;;;5031641;28;20029;-73
2021/06/05 05:00:53;;;;;;;10.73;8.20;;;19.00;99.90;;;;;;5031965;28;20041;-73
2021/06/05 05:03:21;;;;;;;8.25;7.32;;;19.20;99.90;;;;;;5031608;28;20395;-73
2021/06/05 05:05:46;;;;;;;9.48;8.20;;;19.30;99.90;;;;;;5031332;28;20025;-73
2021/06/05 05:08:15;;;;;;;10.73;8.93;;;19.50;99.90;;;;;;5031499;28;20048;-72
2021/06/05 05:10:45;;;;;;;11.10;9.00;;;19.60;99.90;;;;;;5030123;28;20025;-73
2021/06/05 05:13:25;;;;;;;11.73;9.23;;;19.80;99.90;;;;;;5029982;28;20027;-72
2021/06/05 05:15:52;;;;;;;12.20;10.43;;;19.90;99.90;;;;;;5031594;28;20059;-73
2021/06/05 05:18:18;;;;;;;11.85;10.45;;;20.00;99.90;;;;;;5030169;28;20437;-73
2021/06/05 05:20:45;;;;;;;12.35;10.82;;;20.10;99.90;;;;;;5029940;28;20030;-73
2021/06/05 05:23:11;;;;;;;18.00;12.00;;;20.10;99.90;;;;;;5031087;28;20025;-73
2021/06/05 05:25:40;;;;;;;11.20;10.05;;;20.20;99.90;;;;;;5031047;28;20044;-72
2021/06/05 05:28:07;;;;;;;12.30;10.75;;;20.30;99.90;;;;;;5029631;28;20028;-73
2021/06/05 05:30:38;;;;;;;11.77;10.50;;;20.40;99.90;;;;;;5031187;28;20097;-73
2021/06/05 05:33:04;;;;;;;11.02;9.80;;;20.40;99.90;;;;;;5031134;28;20113;-74
2021/06/05 05:35:30;;;;;;;11.93;10.73;;;20.70;99.90;;;;;;5032057;28;20055;-72
2021/06/05 05:37:56;;;;;;;11.05;9.60;;;20.70;99.90;;;;;;5030804;28;20021;-72
2021/06/05 05:40:25;;;;;;;13.65;10.10;;;20.80;99.90;;;;;;5030801;28;20475;-72
2021/06/05 05:42:51;;;;;;;13.05;10.07;;;20.80;99.90;;;;;;5030715;28;20029;-72
2021/06/05 05:45:17;;;;;;;12.70;10.75;;;20.80;99.90;;;;;;5030518;28;20033;-72
2021/06/05 05:47:42;;;;;;;10.88;9.55;;;20.80;99.90;;;;;;5029322;28;20032;-72
2021/06/05 05:50:12;;;;;;;11.20;9.20;;;20.80;99.90;;;;;;5030816;28;20030;-72
2021/06/05 05:52:37;;;;;;;10.52;8.65;;;20.90;99.90;;;;;;5030684;28;20025;-72
2021/06/05 05:55:05;;;;;;;12.40;9.70;;;21.00;99.90;;;;;;5030287;28;20039;-73
2021/06/05 05:57:31;;;;;;;10.85;8.60;;;21.10;99.90;;;;;;5030407;28;20079;-72
2021/06/05 05:59:57;;;;;;;9.27;8.25;;;21.20;99.90;;;;;;5030326;28;20022;-72
2021/06/05 06:02:22;;;;;;;11.73;8.18;;;21.40;99.90;;;;;;5030321;28;20033;-72
2021/06/05 06:04:48;;;;;;;9.40;8.50;;;21.60;99.90;;;;;;5030216;28;20376;-72
2021/06/05 06:07:14;;;;;;;10.73;8.40;;;21.60;99.90;;;;;;5030167;28;20018;-72
2021/06/05 06:09:40;;;;;;;10.10;8.27;;;21.40;99.90;;;;;;5030220;28;20029;-72
2021/06/05 06:12:06;;;;;;;13.30;8.40;;;21.30;99.90;;;;;;5030791;28;20378;-72
2021/06/05 06:14:32;;;;;;;9.90;7.97;;;21.20;99.90;;;;;;5030151;28;20557;-72
2021/06/05 06:16:57;;;;;;;8.85;7.63;;;21.30;99.90;;;;;;5030107;28;20037;-72
2021/06/05 06:19:23;;;;;;;10.07;7.85;;;21.40;99.90;;;;;;5028732;28;20086;-71
2021/06/05 06:21:49;;;;;;;8.95;7.55;;;21.50;99.90;;;;;;5028696;28;20026;-73
2021/06/05 06:24:15;;;;;;;9.52;7.55;;;21.40;99.90;;;;;;5028596;28;20116;-72
2021/06/05 06:26:41;;;;;;;9.32;7.18;;;21.30;99.90;;;;;;5029910;28;20018;-72
2021/06/05 06:29:16;;;;;;;7.75;6.93;;;21.30;99.90;;;;;;5029955;28;20064;-72
2021/06/05 06:31:44;;;;;;;10.30;6.70;;;21.20;99.90;;;;;;5029798;28;20020;-72
2021/06/05 06:34:10;;;;;;;6.45;5.75;;;21.30;99.90;;;;;;5029973;28;20111;-72
2021/06/05 06:36:37;;;;;;;7.60;6.80;;;21.50;99.90;;;;;;5029529;28;20075;-72
2021/06/05 06:39:04;;;;;;;7.68;6.88;;;21.80;99.90;;;;;;5028407;28;20041;-72
2021/06/05 06:41:30;;;;;;;8.52;6.65;;;22.00;99.90;;;;;;5029897;28;20523;-72
2021/06/05 06:43:58;;;;;;;7.68;6.60;;;22.20;99.90;;;;;;5028370;28;20120;-73
2021/06/05 06:46:27;;;;;;;7.15;6.18;;;22.20;99.90;;;;;;5028140;28;20048;-72
2021/06/05 06:48:54;;;;;;;9.63;6.53;;;22.40;99.90;;;;;;5029851;28;20024;-72
2021/06/05 06:51:20;;;;;;;8.40;6.75;;;22.50;99.90;;;;;;5029587;28;20025;-73
2021/06/05 06:53:46;;;;;;;9.55;6.55;;;22.60;99.90;;;;;;5029487;28;20028;-72
2021/06/05 06:56:12;;;;;;;8.75;7.13;;;22.70;99.90;;;;;;5029372;28;20029;-72
2021/06/05 06:58:38;;;;;;;8.50;5.63;;;22.80;99.90;;;;;;5028122;28;20028;-72
2021/06/05 07:01:05;;;;;;;9.32;6.78;;;23.10;99.90;;;;;;5029661;28;20094;-72
2021/06/05 07:03:31;;;;;;;6.28;5.68;;;23.30;99.90;;;;;;5029362;28;20026;-71
2021/06/05 07:05:57;;;;;;;7.45;5.60;;;23.30;99.90;;;;;;5029146;28;20033;-70
2021/06/05 07:08:27;;;;;;;7.07;5.80;;;23.30;99.90;;;;;;5029532;28;20034;-71
2021/06/05 07:11:00;;;;;;;5.50;4.50;;;23.30;99.90;;;;;;5030098;28;20178;-71
2021/06/05 07:13:26;;;;;;;6.25;5.60;;;23.30;99.90;;;;;;5029694;28;20028;-71
2021/06/05 07:15:54;;;;;;;6.13;4.85;;;23.60;99.90;;;;;;5029639;28;20021;-71
2021/06/05 07:18:21;;;;;;;6.95;5.90;;;23.80;99.90;;;;;;5029581;28;20026;-71
2021/06/05 07:20:51;;;;;;;7.32;5.75;;;24.00;99.90;;;;;;5029555;28;20507;-71
2021/06/05 07:23:22;;;;;;;8.35;5.47;;;24.10;99.90;;;;;;5029566;28;20112;-70
2021/06/05 07:25:49;;;;;;;7.72;6.28;;;24.50;99.90;;;;;;5027859;28;20402;-71
2021/06/05 07:28:45;;;;;;;7.43;6.05;;;24.80;99.90;;;;;;5029771;28;20021;-72
2021/06/05 07:31:15;;;;;;;8.10;6.15;;;24.60;99.90;;;;;;5020882;28;20384;-71
2021/06/05 07:33:43;;;;;;;10.82;6.60;;;24.50;99.90;;;;;;5029375;28;20021;-71
2021/06/05 07:36:15;;;;;;;7.55;6.20;;;24.30;99.90;;;;;;5028796;28;20041;-71
2021/06/05 07:38:40;;;;;;;10.00;7.90;;;24.30;99.90;;;;;;5029213;28;20026;-71
2021/06/05 07:41:06;;;;;;;6.45;5.50;;;24.30;99.90;;;;;;5029031;28;20021;-71
2021/06/05 07:43:33;;;;;;;7.38;6.45;;;24.30;99.90;;;;;;5029468;28;20493;-72
2021/06/05 07:45:59;;;;;;;8.00;5.63;;;24.30;99.90;;;;;;5032891;28;20496;-71
2021/06/05 07:48:27;;;;;;;9.43;5.57;;;24.20;99.90;;;;;;5032981;28;20029;-72
2021/06/05 07:50:52;;;;;;;6.90;6.20;;;24.30;99.90;;;;;;5033033;28;20026;-71
2021/06/05 07:53:18;;;;;;;8.32;6.13;;;24.60;99.90;;;;;;5032761;28;20029;-70
2021/06/05 07:55:44;;;;;;;9.00;6.60;;;24.70;99.90;;;;;;5031366;28;20037;-70
2021/06/05 07:58:11;;;;;;;8.40;6.28;;;24.70;99.90;;;;;;5032637;28;20147;-70
2021/06/05 08:00:37;;;;;;;8.23;6.03;;;24.70;99.90;;;;;;5032867;28;20112;-71
2021/06/05 08:03:05;;;;;;;6.70;6.00;;;24.70;99.90;;;;;;5032828;28;20048;-71
2021/06/05 08:05:30;;;;;;;8.55;5.68;;;24.90;99.90;;;;;;5032337;28;20487;-72
2021/06/05 08:07:57;;;;;;;8.00;6.03;;;25.10;99.90;;;;;;5032746;28;20109;-71
2021/06/05 08:10:24;;;;;;;7.35;6.38;;;25.10;99.90;;;;;;5031151;28;20211;-71
2021/06/05 08:12:50;;;;;;;6.88;6.18;;;24.90;99.90;;;;;;5032667;28;20037;-71
2021/06/05 08:15:23;;;;;;;7.90;7.05;;;25.00;99.90;;;;;;5032290;28;20037;-71
2021/06/05 08:17:49;;;;;;;10.38;5.95;;;25.20;99.90;;;;;;5032427;28;20502;-71
2021/06/05 08:20:23;;;;;;;7.13;6.43;;;25.20;99.90;;;;;;5032150;28;20038;-72
2021/06/05 08:22:48;;;;;;;6.82;5.57;;;25.00;99.90;;;;;;5032179;28;20068;-71
2021/06/05 08:25:14;;;;;;;7.20;6.00;;;25.00;99.90;;;;;;5032112;28;20033;-72
2021/06/05 08:27:42;;;;;;;9.73;6.80;;;25.10;99.90;;;;;;5031964;28;20065;-71
2021/06/05 08:30:12;;;;;;;7.03;6.32;;;25.10;99.90;;;;;;5030690;28;20505;-72
2021/06/05 08:32:38;;;;;;;6.63;5.82;;;25.20;99.90;;;;;;5031899;28;20021;-72
2021/06/05 08:35:04;;;;;;;6.45;5.47;;;25.60;99.90;;;;;;5031616;28;20132;-73
2021/06/05 08:37:30;;;;;;;7.68;6.10;;;25.70;99.90;;;;;;5030294;28;20026;-71
2021/06/05 08:39:55;;;;;;;7.95;6.85;;;25.70;99.10;;;;;;5031891;28;20038;-71
2021/06/05 08:42:36;;;;;;;9.40;7.25;;;25.90;98.20;;;;;;5031152;28;20116;-70
2021/06/05 08:45:04;;;;;;;7.45;6.75;;;26.00;97.40;;;;;;5030330;28;20119;-71
2021/06/05 08:47:33;;;;;;;8.25;6.70;;;26.30;96.40;;;;;;5030244;28;20391;-71
2021/06/05 08:50:15;;;;;;;8.52;7.60;;;26.40;95.70;;;;;;5031484;28;20032;-70
2021/06/05 08:53:08;;;;;;;8.80;7.90;;;26.50;94.50;;;;;;5030601;28;20116;-72
2021/06/05 08:55:40;;;;;;;7.93;6.80;;;26.60;93.50;;;;;;5031618;28;20021;-71
2021/06/05 08:58:30;;;;;;;7.33;5.63;;;26.80;92.50;;;;;;5030355;28;20075;-72
2021/06/05 09:00:58;;;;;;;9.90;7.75;;;27.40;91.40;;;;;;5030277;28;20264;-71
2021/06/05 09:03:27;;;;;;;7.47;5.95;;;27.70;87.50;;;;;;5030271;28;20083;-71
2021/06/05 09:05:57;;;;;;;9.05;6.97;;;27.60;90.10;;;;;;5029984;28;20505;-71
2021/06/05 09:08:24;;;;;;;6.80;5.65;;;27.50;89.80;;;;;;5032967;28;20032;-72
2021/06/05 09:10:55;;;;;;;7.72;7.03;;;27.40;91.80;;;;;;5032334;28;20034;-72
2021/06/05 09:13:21;;;;;;;7.18;5.85;;;27.60;87.70;;;;;;5030829;28;20434;-72
2021/06/05 09:15:46;;;;;;;9.32;7.10;;;27.80;88.10;;;;;;5031727;28;20037;-72
2021/06/05 09:18:13;;;;;;;9.65;7.30;;;28.10;83.60;;;;;;5032148;28;20475;-72
2021/06/05 09:20:42;;;;;;;6.43;5.20;;;28.40;83.10;;;;;;5031354;28;20031;-72
2021/06/05 09:23:20;;;;;;;7.90;7.07;;;28.40;83.90;;;;;;5029719;28;20036;-72
2021/06/05 09:25:46;;;;;;;7.53;6.10;;;28.40;81.20;;;;;;5030809;28;20112;-72
2021/06/05 09:28:21;;;;;;;8.15;7.13;;;28.20;83.80;;;;;;5030936;28;20057;-72
2021/06/05 09:30:49;;;;;;;11.80;8.68;;;28.20;83.50;;;;;;5029553;28;20072;-72
2021/06/05 09:33:34;;;;;;;6.70;6.05;;;28.10;81.40;;;;;;5031069;28;20471;-72
2021/06/05 09:36:30;;;;;;;10.85;6.13;;;28.20;82.20;;;;;;5029528;28;20044;-72
2021/06/05 09:39:09;;;;;;;6.97;5.80;;;28.80;81.90;;;;;;5030651;28;20097;-72
2021/06/05 09:41:35;;;;;;;6.50;4.63;;;29.50;77.30;;;;;;5030890;28;20022;-72
2021/06/05 09:44:21;;;;;;;7.00;5.07;;;30.30;76.20;;;;;;5030896;28;20030;-73
2021/06/05 09:47:11;;;;;;;6.20;5.35;;;31.40;65.90;;;;;;5030939;28;20033;-73
2021/06/05 09:49:46;;;;;;;6.25;5.07;;;33.10;58.80;;;;;;5030873;28;20033;-72
2021/06/05 09:52:35;;;;;;;4.63;4.10;;;36.10;50.30;;;;;;5030641;28;20398;-73
2021/06/05 09:55:21;;;;;;;7.47;5.10;;;38.40;43.80;;;;;;5030341;28;20483;-73
2021/06/05 09:57:50;;;;;;;6.72;4.78;;;39.90;39.80;;;;;;5023165;28;20059;-73
2021/06/05 10:00:25;;;;;;;5.68;5.15;;;41.10;36.40;;;;;;5030026;28;20368;-74
2021/06/05 10:03:25;;;;;;;6.20;5.60;;;41.10;36.30;;;;;;5030263;28;20029;-73
2021/06/05 10:05:51;;;;;;;4.75;4.25;;;41.00;35.80;;;;;;5029409;28;20029;-73
2021/06/05 10:08:25;;;;;;;3.97;3.67;;;40.50;36.10;;;;;;5030235;28;20021;-73
2021/06/05 10:10:59;;;;;;;6.65;6.05;;;41.50;34.40;;;;;;5029949;28;20033;-73
2021/06/05 10:13:29;;;;;;;5.15;4.65;;;41.90;32.90;;;;;;5030015;28;20100;-73
2021/06/05 10:15:59;;;;;;;3.63;3.33;;;42.30;33.30;;;;;;5029738;28;20117;-73
2021/06/05 10:18:32;;;;;;;4.85;4.43;;;43.40;32.60;;;;;;5030490;28;20017;-73
2021/06/05 10:21:31;;;;;;;6.60;5.10;;;44.20;31.10;;;;;;5028501;28;20029;-73
2021/06/05 10:24:16;;;;;;;4.82;3.88;;;44.60;29.80;;;;;;5028117;28;20136;-73
2021/06/05 10:26:45;;;;;;;4.22;3.85;;;44.50;29.20;;;;;;5028315;28;20076;-73
2021/06/05 10:29:20;;;;;;;2.92;2.72;;;43.60;29.80;;;;;;5029787;28;20032;-73
2021/06/05 10:31:46;;;;;;;4.88;4.35;;;44.60;29.60;;;;;;5028414;28;20026;-73
2021/06/05 10:34:18;;;;;;;6.00;5.03;;;45.50;28.60;;;;;;5029699;28;20467;-73
2021/06/05 10:36:48;;;;;;;3.58;3.08;;;44.20;29.20;;;;;;5029570;28;20033;-73
2021/06/05 10:39:22;;;;;;;7.93;5.00;;;44.70;28.90;;;;;;5029683;28;20030;-73
2021/06/05 10:41:56;;;;;;;5.63;3.92;;;45.30;27.60;;;;;;5029694;28;20080;-73
2021/06/05 10:44:23;;;;;;;3.65;3.35;;;45.80;27.80;;;;;;5029268;28;20540;-74
2021/06/05 10:47:10;;;;;;;4.63;3.63;;;46.20;27.40;;;;;;5029677;28;20048;-73
2021/06/05 10:49:39;;;;;;;2.90;2.70;;;47.30;27.00;;;;;;5029232;28;20027;-73
2021/06/05 10:52:25;;;;;;;3.10;2.58;;;48.90;25.50;;;;;;5029328;28;20501;-74
2021/06/05 10:54:56;;;;;;;3.70;3.40;;;48.90;24.70;;;;;;5029238;28;20026;-74
2021/06/05 10:57:32;;;;;;;5.35;4.85;;;47.50;24.90;;;;;;5028043;28;20017;-73
2021/06/05 11:00:07;;;;;;;7.63;5.20;;;47.10;26.40;;;;;;5029372;28;20451;-73
2021/06/05 11:02:45;;;;;;;9.23;8.43;;;48.10;25.80;;;;;;5029192;28;20029;-73
2021/06/05 11:05:16;;;;;;;3.97;3.55;;;49.30;24.90;;;;;;5029244;28;20028;-74
2021/06/05 11:07:43;;;;;;;4.45;3.70;;;49.30;25.00;;;;;;5028008;28;20025;-74
2021/06/05 11:10:10;;;;;;;2.90;2.70;;;49.30;25.30;;;;;;5028531;28;20442;-73
2021/06/05 11:12:35;;;;;;;3.72;3.28;;;50.40;24.80;;;;;;5029182;28;20463;-73
2021/06/05 11:15:01;;;;;;;2.45;2.30;;;51.60;23.70;;;;;;5029024;28;20040;-73
2021/06/05 11:17:33;;;;;;;4.80;3.35;;;51.80;22.70;;;;;;5030893;28;20018;-73
2021/06/05 11:20:02;;;;;;;5.40;3.50;;;50.70;22.50;;;;;;5033515;28;20506;-73
2021/06/05 11:22:47;;;;;;;3.05;1.80;;;48.80;23.60;;;;;;5033125;28;20475;-74
2021/06/05 11:25:14;;;;;;;3.72;2.67;;;47.90;24.70;;;;;;5033019;28;20053;-72
2021/06/05 11:27:39;;;;;;;3.08;2.05;;;48.30;24.50;;;;;;5033048;28;20446;-73
2021/06/05 11:30:08;;;;;;;2.47;2.25;;;49.40;25.00;;;;;;5033016;28;20101;-73
2021/06/05 11:32:50;;;;;;;2.60;2.40;;;50.60;23.70;;;;;;5031668;28;20022;-73
2021/06/05 11:35:33;;;;;;;2.15;1.98;;;50.80;23.10;;;;;;5054900;22;20038;-71
2021/06/05 11:38:02;;;;;;;3.78;3.40;;;51.60;23.00;;;;;;5012025;28;20026;-72
2021/06/05 11:40:46;;;;;;;2.78;2.58;;;52.20;22.10;;;;;;5013340;28;20121;-71
2021/06/05 11:43:28;;;;;;;20.40;19.05;;;52.50;22.50;;;;;;5013727;28;20018;-72
2021/06/05 11:46:05;;;;;;;3.17;2.95;;;52.80;22.40;;;;;;5013049;28;20483;-72
2021/06/05 11:48:37;;;;;;;3.58;3.20;;;50.00;22.90;;;;;;5013149;28;20076;-72
2021/06/05 11:51:29;;;;;;;5.43;3.90;;;49.00;24.10;;;;;;5013095;28;20112;-72
2021/06/05 11:54:13;;;;;;;4.18;3.78;;;48.40;24.70;;;;;;5007954;28;20034;-71
2021/06/05 11:56:44;;;;;;;3.97;3.60;;;46.20;25.80;;;;;;5013200;28;20076;-73
2021/06/05 11:59:28;;;;;;;4.65;4.10;;;44.90;27.60;;;;;;5013038;28;20415;-72
2021/06/05 12:02:23;;;;;;;4.22;3.83;;;42.40;29.50;;;;;;5013189;28;20029;-72
2021/06/05 12:04:52;;;;;;;5.65;4.65;;;40.70;31.10;;;;;;5010859;28;20041;-74
2021/06/05 12:07:28;;;;;;;5.72;4.57;;;38.30;34.60;;;;;;5012900;28;20026;-73
2021/06/05 12:10:00;;;;;;;5.18;4.45;;;36.60;37.30;;;;;;5012703;28;20022;-73
2021/06/05 12:12:30;;;;;;;;;;;34.90;39.90;;;;;;5013133;28;20501;-72
2021/06/05 12:15:08;;;;;;;6.97;5.63;;;34.00;41.50;;;;;;5012604;28;20367;-73
2021/06/05 12:17:40;;;;;;;4.80;3.72;;;33.20;42.90;;;;;;5012568;28;20022;-72
2021/06/05 12:20:39;;;;;;;9.18;7.20;;;33.00;43.40;;;;;;5011404;28;20411;-72
2021/06/05 12:23:28;;;;;;;5.13;4.63;;;32.80;43.10;;;;;;5012396;28;20022;-72
2021/06/05 12:26:14;;;;;;;4.78;4.15;;;34.90;40.20;;;;;;5011132;28;20032;-73
2021/06/05 12:28:45;;;;;;;4.88;3.10;;;34.90;38.40;;;;;;5011305;28;20064;-72
2021/06/05 12:31:11;;;;;;;4.13;3.70;;;34.50;40.10;;;;;;5012394;28;20041;-72
2021/06/05 12:33:37;;;;;;;5.93;3.00;;;34.00;41.60;;;;;;5011039;28;20030;-72
2021/06/05 12:36:19;;;;;;;5.80;4.07;;;33.50;42.60;;;;;;5011977;28;20041;-73
2021/06/05 12:38:49;;;;;;;8.93;8.02;;;33.30;43.50;;;;;;5012268;28;20021;-73
2021/06/05 12:41:29;;;;;;;3.92;3.05;;;34.60;42.50;;;;;;5012459;28;20052;-73
2021/06/05 12:43:55;;;;;;;3.75;3.40;;;36.40;39.20;;;;;;5012115;28;20109;-72
2021/06/05 12:46:33;;;;;;;5.55;3.25;;;35.20;39.40;;;;;;5012162;28;20606;-72
2021/06/05 12:49:03;;;;;;;3.78;2.65;;;35.20;39.80;;;;;;5010872;28;20566;-73
2021/06/05 12:51:34;;;;;;;6.25;3.47;;;36.30;38.80;;;;;;5011941;28;20030;-72
2021/06/05 12:54:06;;;;;;;5.45;3.40;;;36.60;37.20;;;;;;5011857;28;20113;-72
2021/06/05 12:56:36;;;;;;;3.95;2.92;;;36.20;38.60;;;;;;5012160;28;20037;-73
2021/06/05 12:59:05;;;;;;;4.50;2.95;;;36.20;38.20;;;;;;5011873;28;20038;-72